sensor_id;sensor_type;location;lat;lon;timestamp;pressure;altitude;pressure_sealevel;temperature;humidity
36254;BME280;22291;52.250;21.228;2023-02-03T00:02:04;100582.58;;;-0.88;98.08
36254;BME280;22291;52.250;21.228;2023-02-03T00:04:30;100591.56;;;-0.89;98.08
36254;BME280;22291;52.250;21.228;2023-02-03T00:07:00;100603.16;;;-0.93;98.27
36254;BME280;22291;52.250;21.228;2023-02-03T00:09:27;100605.51;;;-0.94;98.39
36254;BME280;22291;52.250;21.228;2023-02-03T00:11:53;100604.94;;;-0.96;98.42
36254;BME280;22291;52.250;21.228;2023-02-03T00:14:21;100610.77;;;-0.97;98.36
36254;BME280;22291;52.250;21.228;2023-02-03T00:16:49;100608.03;;;-0.99;98.26
36254;BME280;22291;52.250;21.228;2023-02-03T00:19:15;100605.32;;;-1.02;98.33
36254;BME280;22291;52.250;21.228;2023-02-03T00:21:41;100602.89;;;-1.03;98.39
36254;BME280;22291;52.250;21.228;2023-02-03T00:24:07;100602.80;;;-1.06;98.36
36254;BME280;22291;52.250;21.228;2023-02-03T00:26:33;100609.66;;;-1.07;98.46
36254;BME280;22291;52.250;21.228;2023-02-03T00:29:00;100604.08;;;-1.08;98.44
36254;BME280;22291;52.250;21.228;2023-02-03T00:31:26;100606.95;;;-1.10;98.38
36254;BME280;22291;52.250;21.228;2023-02-03T00:33:55;100594.64;;;-1.14;98.41
36254;BME280;22291;52.250;21.228;2023-02-03T00:36:24;100596.72;;;-1.16;98.47
36254;BME280;22291;52.250;21.228;2023-02-03T00:38:52;100600.70;;;-1.16;98.48
36254;BME280;22291;52.250;21.228;2023-02-03T00:41:22;100601.42;;;-1.18;98.51
36254;BME280;22291;52.250;21.228;2023-02-03T00:43:51;100599.51;;;-1.20;98.56
36254;BME280;22291;52.250;21.228;2023-02-03T00:46:19;100603.93;;;-1.23;98.56
36254;BME280;22291;52.250;21.228;2023-02-03T00:48:45;100602.55;;;-1.25;98.59
36254;BME280;22291;52.250;21.228;2023-02-03T00:51:12;100597.45;;;-1.27;98.61
36254;BME280;22291;52.250;21.228;2023-02-03T00:53:40;100600.64;;;-1.27;98.55
36254;BME280;22291;52.250;21.228;2023-02-03T00:56:06;100597.09;;;-1.30;98.41
36254;BME280;22291;52.250;21.228;2023-02-03T00:58:34;100597.84;;;-1.33;98.26
36254;BME280;22291;52.250;21.228;2023-02-03T01:01:02;100605.19;;;-1.35;98.26
36254;BME280;22291;52.250;21.228;2023-02-03T01:03:32;100608.59;;;-1.37;98.30
36254;BME280;22291;52.250;21.228;2023-02-03T01:06:21;100609.86;;;-1.39;98.34
36254;BME280;22291;52.250;21.228;2023-02-03T01:08:47;100610.88;;;-1.40;98.37
36254;BME280;22291;52.250;21.228;2023-02-03T01:11:24;100604.90;;;-1.45;98.23
36254;BME280;22291;52.250;21.228;2023-02-03T01:13:51;100613.61;;;-1.47;98.26
36254;BME280;22291;52.250;21.228;2023-02-03T01:16:22;100609.84;;;-1.48;98.20
36254;BME280;22291;52.250;21.228;2023-02-03T01:18:51;100613.45;;;-1.52;98.18
36254;BME280;22291;52.250;21.228;2023-02-03T01:21:21;100620.30;;;-1.54;98.18
36254;BME280;22291;52.250;21.228;2023-02-03T01:23:51;100621.84;;;-1.55;98.02
36254;BME280;22291;52.250;21.228;2023-02-03T01:26:22;100621.48;;;-1.59;98.24
36254;BME280;22291;52.250;21.228;2023-02-03T01:28:52;100624.88;;;-1.61;98.30
36254;BME280;22291;52.250;21.228;2023-02-03T01:31:24;100617.94;;;-1.62;98.44
36254;BME280;22291;52.250;21.228;2023-02-03T01:33:55;100621.64;;;-1.63;98.28
36254;BME280;22291;52.250;21.228;2023-02-03T01:36:24;100621.55;;;-1.65;98.30
36254;BME280;22291;52.250;21.228;2023-02-03T01:38:56;100617.78;;;-1.67;98.34
36254;BME280;22291;52.250;21.228;2023-02-03T01:41:25;100626.80;;;-1.68;98.33
36254;BME280;22291;52.250;21.228;2023-02-03T01:43:56;100628.02;;;-1.71;98.23
36254;BME280;22291;52.250;21.228;2023-02-03T01:46:37;100625.31;;;-1.73;98.30
36254;BME280;22291;52.250;21.228;2023-02-03T01:49:26;100623.68;;;-1.74;98.26
36254;BME280;22291;52.250;21.228;2023-02-03T01:51:53;100624.73;;;-1.75;98.31
36254;BME280;22291;52.250;21.228;2023-02-03T01:54:25;100618.31;;;-1.77;98.25
36254;BME280;22291;52.250;21.228;2023-02-03T01:56:58;100621.67;;;-1.79;98.16
36254;BME280;22291;52.250;21.228;2023-02-03T01:59:27;100612.11;;;-1.80;98.11
36254;BME280;22291;52.250;21.228;2023-02-03T02:01:58;100614.24;;;-1.79;98.07
36254;BME280;22291;52.250;21.228;2023-02-03T02:04:28;100611.00;;;-1.81;97.97
36254;BME280;22291;52.250;21.228;2023-02-03T02:06:59;100614.98;;;-1.81;97.96
36254;BME280;22291;52.250;21.228;2023-02-03T02:09:29;100621.09;;;-1.81;98.06
36254;BME280;22291;52.250;21.228;2023-02-03T02:11:55;100621.45;;;-1.77;98.18
36254;BME280;22291;52.250;21.228;2023-02-03T02:14:21;100614.39;;;-1.74;98.31
36254;BME280;22291;52.250;21.228;2023-02-03T02:16:54;100612.94;;;-1.70;98.41
36254;BME280;22291;52.250;21.228;2023-02-03T02:19:53;100610.94;;;-1.65;98.51
36254;BME280;22291;52.250;21.228;2023-02-03T02:26:00;100603.59;;;-1.54;98.58
36254;BME280;22291;52.250;21.228;2023-02-03T02:28:37;100598.20;;;-1.47;98.59
36254;BME280;22291;52.250;21.228;2023-02-03T02:34:45;100592.08;;;-1.39;98.55
36254;BME280;22291;52.250;21.228;2023-02-03T02:40:20;100587.72;;;-1.33;98.37
36254;BME280;22291;52.250;21.228;2023-02-03T02:43:07;100584.35;;;-1.31;98.14
36254;BME280;22291;52.250;21.228;2023-02-03T02:45:57;100582.19;;;-1.32;97.88
36254;BME280;22291;52.250;21.228;2023-02-03T02:48:45;100572.63;;;-1.33;97.55
36254;BME280;22291;52.250;21.228;2023-02-03T02:51:24;100573.59;;;-1.36;97.13
36254;BME280;22291;52.250;21.228;2023-02-03T02:53:56;100576.96;;;-1.38;97.01
36254;BME280;22291;52.250;21.228;2023-02-03T02:56:27;100577.18;;;-1.40;96.62
36254;BME280;22291;52.250;21.228;2023-02-03T02:58:57;100577.34;;;-1.44;96.36
36254;BME280;22291;52.250;21.228;2023-02-03T03:01:28;100581.23;;;-1.46;96.24
36254;BME280;22291;52.250;21.228;2023-02-03T03:03:56;100581.48;;;-1.48;96.05
36254;BME280;22291;52.250;21.228;2023-02-03T03:06:47;100580.07;;;-1.51;95.90
36254;BME280;22291;52.250;21.228;2023-02-03T03:09:19;100577.05;;;-1.54;95.87
36254;BME280;22291;52.250;21.228;2023-02-03T03:11:55;100586.50;;;-1.58;95.53
36254;BME280;22291;52.250;21.228;2023-02-03T03:14:25;100580.52;;;-1.63;95.49
36254;BME280;22291;52.250;21.228;2023-02-03T03:17:06;100588.11;;;-1.66;95.30
36254;BME280;22291;52.250;21.228;2023-02-03T03:19:33;100589.35;;;-1.69;95.22
36254;BME280;22291;52.250;21.228;2023-02-03T03:22:05;100592.96;;;-1.73;95.20
36254;BME280;22291;52.250;21.228;2023-02-03T03:24:44;100590.25;;;-1.75;95.18
36254;BME280;22291;52.250;21.228;2023-02-03T03:27:24;100593.12;;;-1.77;95.19
36254;BME280;22291;52.250;21.228;2023-02-03T03:30:08;100591.17;;;-1.79;95.17
36254;BME280;22291;52.250;21.228;2023-02-03T03:32:40;100587.94;;;-1.81;95.18
36254;BME280;22291;52.250;21.228;2023-02-03T03:35:07;100585.50;;;-1.82;95.04
36254;BME280;22291;52.250;21.228;2023-02-03T03:37:45;100582.48;;;-1.86;94.99
36254;BME280;22291;52.250;21.228;2023-02-03T03:40:19;100586.40;;;-1.89;94.97
36254;BME280;22291;52.250;21.228;2023-02-03T03:42:54;100583.66;;;-1.91;95.00
36254;BME280;22291;52.250;21.228;2023-02-03T03:45:44;100581.44;;;-1.94;95.05
36254;BME280;22291;52.250;21.228;2023-02-03T03:48:31;100582.48;;;-1.95;95.00
36254;BME280;22291;52.250;21.228;2023-02-03T03:51:08;100580.57;;;-1.97;95.05
36254;BME280;22291;52.250;21.228;2023-02-03T03:53:39;100579.95;;;-1.99;94.97
36254;BME280;22291;52.250;21.228;2023-02-03T03:56:11;100574.06;;;-2.01;95.00
36254;BME280;22291;52.250;21.228;2023-02-03T03:58:43;100571.63;;;-2.03;95.08
36254;BME280;22291;52.250;21.228;2023-02-03T04:01:15;100575.33;;;-2.04;95.21
36254;BME280;22291;52.250;21.228;2023-02-03T04:03:49;100575.55;;;-2.05;95.27
36254;BME280;22291;52.250;21.228;2023-02-03T04:06:23;100583.50;;;-2.05;95.22
36254;BME280;22291;52.250;21.228;2023-02-03T04:08:50;100587.97;;;-2.06;95.21
36254;BME280;22291;52.250;21.228;2023-02-03T04:11:20;100579.15;;;-2.09;95.09
36254;BME280;22291;52.250;21.228;2023-02-03T04:14:04;100578.53;;;-2.11;95.14
36254;BME280;22291;52.250;21.228;2023-02-03T04:16:30;100585.41;;;-2.13;95.23
36254;BME280;22291;52.250;21.228;2023-02-03T04:18:57;100582.45;;;-2.14;95.42
36254;BME280;22291;52.250;21.228;2023-02-03T04:21:26;100584.57;;;-2.13;95.34
36254;BME280;22291;52.250;21.228;2023-02-03T04:23:52;100586.33;;;-2.16;95.16
36254;BME280;22291;52.250;21.228;2023-02-03T04:26:20;100582.07;;;-2.17;95.34
36254;BME280;22291;52.250;21.228;2023-02-03T04:28:46;100586.05;;;-2.17;95.43
36254;BME280;22291;52.250;21.228;2023-02-03T04:31:12;100583.83;;;-2.20;95.33
36254;BME280;22291;52.250;21.228;2023-02-03T04:33:38;100583.52;;;-2.21;95.41
36254;BME280;22291;52.250;21.228;2023-02-03T04:36:08;100589.86;;;-2.22;95.49
36254;BME280;22291;52.250;21.228;2023-02-03T04:38:36;100582.64;;;-2.24;95.17
36254;BME280;22291;52.250;21.228;2023-02-03T04:41:05;100586.84;;;-2.26;95.12
36254;BME280;22291;52.250;21.228;2023-02-03T04:43:35;100585.94;;;-2.29;95.13
36254;BME280;22291;52.250;21.228;2023-02-03T04:46:04;100583.50;;;-2.31;95.19
36254;BME280;22291;52.250;21.228;2023-02-03T04:48:31;100583.44;;;-2.33;95.25
36254;BME280;22291;52.250;21.228;2023-02-03T04:51:04;100581.00;;;-2.35;95.35
36254;BME280;22291;52.250;21.228;2023-02-03T04:53:34;100585.19;;;-2.36;95.42
36254;BME280;22291;52.250;21.228;2023-02-03T04:56:04;100581.42;;;-2.38;95.51
36254;BME280;22291;52.250;21.228;2023-02-03T04:58:35;100578.98;;;-2.39;95.51
36254;BME280;22291;52.250;21.228;2023-02-03T05:01:07;100576.55;;;-2.41;95.52
36254;BME280;22291;52.250;21.228;2023-02-03T05:03:35;100575.44;;;-2.42;95.39
36254;BME280;22291;52.250;21.228;2023-02-03T05:06:06;100574.05;;;-2.45;95.33
36254;BME280;22291;52.250;21.228;2023-02-03T05:08:34;100572.31;;;-2.49;95.23
36254;BME280;22291;52.250;21.228;2023-02-03T05:11:00;100563.28;;;-2.50;95.21
36254;BME280;22291;52.250;21.228;2023-02-03T05:13:26;100558.70;;;-2.52;95.22
36254;BME280;22291;52.250;21.228;2023-02-03T05:15:53;100558.11;;;-2.54;95.41
36254;BME280;22291;52.250;21.228;2023-02-03T05:18:19;100554.34;;;-2.56;95.31
36254;BME280;22291;52.250;21.228;2023-02-03T05:20:45;100553.23;;;-2.57;95.46
36254;BME280;22291;52.250;21.228;2023-02-03T05:23:12;100550.80;;;-2.59;95.47
36254;BME280;22291;52.250;21.228;2023-02-03T05:25:38;100547.06;;;-2.60;95.22
36254;BME280;22291;52.250;21.228;2023-02-03T05:28:04;100555.44;;;-2.64;95.15
36254;BME280;22291;52.250;21.228;2023-02-03T05:30:30;100559.41;;;-2.64;95.35
36254;BME280;22291;52.250;21.228;2023-02-03T05:32:56;100553.80;;;-2.65;95.38
36254;BME280;22291;52.250;21.228;2023-02-03T05:35:22;100549.52;;;-2.66;95.43
36254;BME280;22291;52.250;21.228;2023-02-03T05:37:49;100556.38;;;-2.67;95.53
36254;BME280;22291;52.250;21.228;2023-02-03T05:40:18;100551.30;;;-2.69;95.58
36254;BME280;22291;52.250;21.228;2023-02-03T05:43:02;100549.35;;;-2.71;95.53
36254;BME280;22291;52.250;21.228;2023-02-03T05:45:29;100560.98;;;-2.72;95.76
36254;BME280;22291;52.250;21.228;2023-02-03T05:47:55;100551.93;;;-2.73;95.86
36254;BME280;22291;52.250;21.228;2023-02-03T05:50:21;100545.52;;;-2.75;95.95
36254;BME280;22291;52.250;21.228;2023-02-03T05:52:49;100551.93;;;-2.73;96.03
36254;BME280;22291;52.250;21.228;2023-02-03T05:55:15;100543.89;;;-2.76;95.89
36254;BME280;22291;52.250;21.228;2023-02-03T05:57:42;100544.34;;;-2.79;95.63
36254;BME280;22291;52.250;21.228;2023-02-03T06:00:12;100550.66;;;-2.80;95.52
36254;BME280;22291;52.250;21.228;2023-02-03T06:02:43;100549.54;;;-2.82;95.65
36254;BME280;22291;52.250;21.228;2023-02-03T06:05:10;100548.42;;;-2.83;95.70
36254;BME280;22291;52.250;21.228;2023-02-03T06:07:38;100545.50;;;-2.84;96.03
36254;BME280;22291;52.250;21.228;2023-02-03T06:10:07;100543.66;;;-2.84;96.12
36254;BME280;22291;52.250;21.228;2023-02-03T06:12:36;100533.58;;;-2.84;96.25
36254;BME280;22291;52.250;21.228;2023-02-03T06:15:08;100538.66;;;-2.83;96.30
36254;BME280;22291;52.250;21.228;2023-02-03T06:17:37;100536.51;;;-2.83;96.36
36254;BME280;22291;52.250;21.228;2023-02-03T06:20:07;100528.29;;;-2.84;96.47
36254;BME280;22291;52.250;21.228;2023-02-03T06:22:34;100529.89;;;-2.83;96.53
36254;BME280;22291;52.250;21.228;2023-02-03T06:25:00;100528.29;;;-2.84;96.45
36254;BME280;22291;52.250;21.228;2023-02-03T06:27:27;100523.27;;;-2.83;96.44
36254;BME280;22291;52.250;21.228;2023-02-03T06:29:53;100523.06;;;-2.82;96.56
36254;BME280;22291;52.250;21.228;2023-02-03T06:32:19;100514.84;;;-2.83;96.71
36254;BME280;22291;52.250;21.228;2023-02-03T06:34:46;100522.78;;;-2.83;96.80
36254;BME280;22291;52.250;21.228;2023-02-03T06:37:14;100519.09;;;-2.82;96.87
36254;BME280;22291;52.250;21.228;2023-02-03T06:39:41;100516.75;;;-2.80;96.98
36254;BME280;22291;52.250;21.228;2023-02-03T06:42:08;100511.45;;;-2.80;97.01
36254;BME280;22291;52.250;21.228;2023-02-03T06:44:36;100502.19;;;-2.80;97.17
36254;BME280;22291;52.250;21.228;2023-02-03T06:47:02;100498.81;;;-2.78;97.35
36254;BME280;22291;52.250;21.228;2023-02-03T06:49:30;100491.98;;;-2.77;97.43
36254;BME280;22291;52.250;21.228;2023-02-03T06:51:56;100496.23;;;-2.76;97.52
36254;BME280;22291;52.250;21.228;2023-02-03T06:54:28;100484.20;;;-2.72;97.67
36254;BME280;22291;52.250;21.228;2023-02-03T06:56:54;100481.92;;;-2.68;97.73
36254;BME280;22291;52.250;21.228;2023-02-03T06:59:22;100477.22;;;-2.66;97.68
36254;BME280;22291;52.250;21.228;2023-02-03T07:01:50;100475.47;;;-2.63;97.72
36254;BME280;22291;52.250;21.228;2023-02-03T07:04:19;100479.01;;;-2.60;97.82
36254;BME280;22291;52.250;21.228;2023-02-03T07:06:45;100477.75;;;-2.57;97.88
36254;BME280;22291;52.250;21.228;2023-02-03T07:09:16;100475.47;;;-2.54;97.91
36254;BME280;22291;52.250;21.228;2023-02-03T07:11:42;100473.50;;;-2.49;98.02
36254;BME280;22291;52.250;21.228;2023-02-03T07:14:09;100468.08;;;-2.45;98.10
36254;BME280;22291;52.250;21.228;2023-02-03T07:16:35;100457.12;;;-2.39;98.17
36254;BME280;22291;52.250;21.228;2023-02-03T07:19:05;100455.14;;;-2.35;98.13
36254;BME280;22291;52.250;21.228;2023-02-03T07:21:31;100459.27;;;-2.30;98.09
36254;BME280;22291;52.250;21.228;2023-02-03T07:23:59;100451.69;;;-2.26;98.02
36254;BME280;22291;52.250;21.228;2023-02-03T07:26:29;100440.66;;;-2.23;98.08
36254;BME280;22291;52.250;21.228;2023-02-03T07:28:55;100438.20;;;-2.15;98.23
36254;BME280;22291;52.250;21.228;2023-02-03T07:31:23;100431.07;;;-2.05;98.59
36254;BME280;22291;52.250;21.228;2023-02-03T07:33:51;100429.73;;;-1.96;98.78
36254;BME280;22291;52.250;21.228;2023-02-03T07:36:18;100432.66;;;-1.86;98.98
36254;BME280;22291;52.250;21.228;2023-02-03T07:38:44;100428.00;;;-1.72;99.39
36254;BME280;22291;52.250;21.228;2023-02-03T07:41:10;100428.92;;;-1.48;100.00
36254;BME280;22291;52.250;21.228;2023-02-03T07:43:36;100421.98;;;-1.28;99.82
36254;BME280;22291;52.250;21.228;2023-02-03T07:46:05;100415.38;;;-1.16;98.77
36254;BME280;22291;52.250;21.228;2023-02-03T07:48:35;100410.66;;;-1.02;98.49
36254;BME280;22291;52.250;21.228;2023-02-03T07:51:01;100413.75;;;-0.72;99.72
36254;BME280;22291;52.250;21.228;2023-02-03T07:53:32;100398.78;;;-0.41;100.00
36254;BME280;22291;52.250;21.228;2023-02-03T07:56:06;100400.80;;;-0.19;99.61
36254;BME280;22291;52.250;21.228;2023-02-03T07:58:32;100391.73;;;0.06;99.86
36254;BME280;22291;52.250;21.228;2023-02-03T08:01:00;100390.96;;;0.22;98.39
36254;BME280;22291;52.250;21.228;2023-02-03T08:03:27;100378.00;;;0.40;99.12
36254;BME280;22291;52.250;21.228;2023-02-03T08:05:53;100378.44;;;0.66;98.83
36254;BME280;22291;52.250;21.228;2023-02-03T08:08:21;100372.88;;;0.84;97.86
36254;BME280;22291;52.250;21.228;2023-02-03T08:10:47;100376.08;;;1.01;95.81
36254;BME280;22291;52.250;21.228;2023-02-03T08:13:19;100379.59;;;1.23;96.40
36254;BME280;22291;52.250;21.228;2023-02-03T08:15:51;100370.86;;;1.47;95.33
36254;BME280;22291;52.250;21.228;2023-02-03T08:18:21;100365.65;;;1.55;94.26
36254;BME280;22291;52.250;21.228;2023-02-03T08:20:50;100359.84;;;1.61;92.21
36254;BME280;22291;52.250;21.228;2023-02-03T08:23:18;100357.26;;;1.68;91.80
36254;BME280;22291;52.250;21.228;2023-02-03T08:25:44;100357.41;;;1.79;91.44
36254;BME280;22291;52.250;21.228;2023-02-03T08:28:19;100362.86;;;1.89;91.39
36254;BME280;22291;52.250;21.228;2023-02-03T08:30:48;100349.47;;;1.84;89.40
36254;BME280;22291;52.250;21.228;2023-02-03T08:33:14;100348.83;;;1.77;89.57
36254;BME280;22291;52.250;21.228;2023-02-03T08:35:48;100342.88;;;1.70;88.28
36254;BME280;22291;52.250;21.228;2023-02-03T08:38:18;100338.28;;;1.65;88.86
36254;BME280;22291;52.250;21.228;2023-02-03T08:40:46;100331.36;;;1.64;89.45
36254;BME280;22291;52.250;21.228;2023-02-03T08:43:12;100331.91;;;1.66;88.85
36254;BME280;22291;52.250;21.228;2023-02-03T08:45:40;100324.41;;;1.63;88.32
36254;BME280;22291;52.250;21.228;2023-02-03T08:48:11;100324.16;;;1.64;88.93
36254;BME280;22291;52.250;21.228;2023-02-03T08:50:40;100318.02;;;1.64;87.39
36254;BME280;22291;52.250;21.228;2023-02-03T08:53:11;100319.50;;;1.55;87.09
36254;BME280;22291;52.250;21.228;2023-02-03T08:55:39;100314.21;;;1.57;87.25
36254;BME280;22291;52.250;21.228;2023-02-03T08:58:07;100306.41;;;1.53;85.70
36254;BME280;22291;52.250;21.228;2023-02-03T09:00:34;100306.89;;;1.47;85.55
36254;BME280;22291;52.250;21.228;2023-02-03T09:03:00;100298.03;;;1.42;85.54
36254;BME280;22291;52.250;21.228;2023-02-03T09:05:31;100289.92;;;1.34;85.38
36254;BME280;22291;52.250;21.228;2023-02-03T09:07:58;100280.34;;;1.33;85.58
36254;BME280;22291;52.250;21.228;2023-02-03T09:10:26;100283.48;;;1.30;85.09
36254;BME280;22291;52.250;21.228;2023-02-03T09:12:52;100277.42;;;1.35;85.66
36254;BME280;22291;52.250;21.228;2023-02-03T09:15:19;100273.44;;;1.37;85.93
36254;BME280;22291;52.250;21.228;2023-02-03T09:17:45;100269.73;;;1.63;87.05
36254;BME280;22291;52.250;21.228;2023-02-03T09:20:14;100257.45;;;1.86;86.97
36254;BME280;22291;52.250;21.228;2023-02-03T09:22:41;100258.39;;;2.00;86.20
36254;BME280;22291;52.250;21.228;2023-02-03T09:25:10;100247.86;;;2.15;85.35
36254;BME280;22291;52.250;21.228;2023-02-03T09:27:37;100255.19;;;2.30;85.11
36254;BME280;22291;52.250;21.228;2023-02-03T09:30:07;100247.55;;;2.47;84.60
36254;BME280;22291;52.250;21.228;2023-02-03T09:32:34;100243.66;;;2.59;85.25
36254;BME280;22291;52.250;21.228;2023-02-03T09:35:00;100246.33;;;2.59;83.83
36254;BME280;22291;52.250;21.228;2023-02-03T09:37:28;100233.23;;;2.60;83.29
36254;BME280;22291;52.250;21.228;2023-02-03T09:39:56;100229.09;;;2.80;83.68
36254;BME280;22291;52.250;21.228;2023-02-03T09:45:30;100214.99;;;2.90;82.42
36254;BME280;22291;52.250;21.228;2023-02-03T09:48:15;100212.04;;;2.86;80.69
36254;BME280;22291;52.250;21.228;2023-02-03T09:50:50;100205.84;;;2.80;78.91
36254;BME280;22291;52.250;21.228;2023-02-03T09:55:56;100194.34;;;2.75;79.88
36254;BME280;22291;52.250;21.228;2023-02-03T09:58:26;100187.89;;;2.68;79.05
36254;BME280;22291;52.250;21.228;2023-02-03T10:00:58;100183.63;;;2.70;78.55
36254;BME280;22291;52.250;21.228;2023-02-03T10:03:46;100177.23;;;2.71;79.31
36254;BME280;22291;52.250;21.228;2023-02-03T10:17:40;100144.83;;;2.54;75.17
36254;BME280;22291;52.250;21.228;2023-02-03T10:20:21;100135.08;;;2.83;76.12
36254;BME280;22291;52.250;21.228;2023-02-03T10:23:03;100127.88;;;2.86;73.95
36254;BME280;22291;52.250;21.228;2023-02-03T10:25:50;100124.67;;;2.89;72.54
36254;BME280;22291;52.250;21.228;2023-02-03T10:28:24;100107.51;;;2.70;71.82
36254;BME280;22291;52.250;21.228;2023-02-03T10:31:02;100105.89;;;2.66;72.88
36254;BME280;22291;52.250;21.228;2023-02-03T10:33:31;100089.39;;;2.79;72.02
36254;BME280;22291;52.250;21.228;2023-02-03T10:36:20;100101.43;;;2.85;69.94
36254;BME280;22291;52.250;21.228;2023-02-03T10:41:30;100081.96;;;3.05;71.96
36254;BME280;22291;52.250;21.228;2023-02-03T10:44:01;100078.83;;;3.36;68.49
36254;BME280;22291;52.250;21.228;2023-02-03T10:46:33;100080.97;;;3.34;69.01
36254;BME280;22291;52.250;21.228;2023-02-03T10:49:03;100067.31;;;3.33;69.23
36254;BME280;22291;52.250;21.228;2023-02-03T10:51:40;100050.73;;;3.28;68.99
36254;BME280;22291;52.250;21.228;2023-02-03T10:54:31;100061.69;;;3.19;66.42
36254;BME280;22291;52.250;21.228;2023-02-03T10:57:04;100037.08;;;3.09;66.60
36254;BME280;22291;52.250;21.228;2023-02-03T10:59:35;100025.28;;;2.87;66.34
36254;BME280;22291;52.250;21.228;2023-02-03T11:02:20;100015.09;;;2.74;68.26
36254;BME280;22291;52.250;21.228;2023-02-03T11:05:20;100015.35;;;2.65;67.88
36254;BME280;22291;52.250;21.228;2023-02-03T11:07:51;99996.58;;;2.41;66.89
36254;BME280;22291;52.250;21.228;2023-02-03T11:15:59;99958.32;;;2.15;67.76
36254;BME280;22291;52.250;21.228;2023-02-03T11:21:40;99954.73;;;2.63;69.50
36254;BME280;22291;52.250;21.228;2023-02-03T11:24:26;99926.45;;;2.85;69.53
36254;BME280;22291;52.250;21.228;2023-02-03T11:27:08;99922.69;;;2.80;67.22
36254;BME280;22291;52.250;21.228;2023-02-03T11:29:45;99922.95;;;2.69;67.59
36254;BME280;22291;52.250;21.228;2023-02-03T11:32:17;99908.24;;;2.58;68.19
36254;BME280;22291;52.250;21.228;2023-02-03T11:37:55;99898.32;;;2.31;68.25
36254;BME280;22291;52.250;21.228;2023-02-03T11:43:00;99878.27;;;2.23;69.88
36254;BME280;22291;52.250;21.228;2023-02-03T11:45:35;99880.41;;;2.13;68.20
36254;BME280;22291;52.250;21.228;2023-02-03T11:54:05;99842.37;;;1.67;68.49
36254;BME280;22291;52.250;21.228;2023-02-03T12:00:22;99819.88;;;1.45;68.96
36254;BME280;22291;52.250;21.228;2023-02-03T12:03:13;99801.17;;;1.38;68.24
36254;BME280;22291;52.250;21.228;2023-02-03T12:09:05;99793.93;;;1.23;69.27
36254;BME280;22291;52.250;21.228;2023-02-03T12:15:16;99773.56;;;1.04;70.00
36254;BME280;22291;52.250;21.228;2023-02-03T12:18:03;99769.03;;;0.99;70.12
36254;BME280;22291;52.250;21.228;2023-02-03T12:23:54;99747.09;;;0.87;69.58
36254;BME280;22291;52.250;21.228;2023-02-03T12:29:13;99749.16;;;0.72;69.32
36254;BME280;22291;52.250;21.228;2023-02-03T12:34:23;99733.16;;;0.67;70.96
36254;BME280;22291;52.250;21.228;2023-02-03T12:39:40;99722.77;;;0.68;71.46
36254;BME280;22291;52.250;21.228;2023-02-03T12:45:14;99714.24;;;0.66;70.30
36254;BME280;22291;52.250;21.228;2023-02-03T12:47:55;99705.44;;;0.63;70.10
36254;BME280;22291;52.250;21.228;2023-02-03T12:50:55;99704.89;;;0.61;70.83
36254;BME280;22291;52.250;21.228;2023-02-03T12:53:33;99695.04;;;0.59;71.13
36254;BME280;22291;52.250;21.228;2023-02-03T12:56:08;99691.02;;;0.56;70.87
36254;BME280;22291;52.250;21.228;2023-02-03T12:58:40;99681.45;;;0.55;71.92
36254;BME280;22291;52.250;21.228;2023-02-03T13:01:27;99678.25;;;0.55;71.58
36254;BME280;22291;52.250;21.228;2023-02-03T13:04:10;99670.27;;;0.55;71.92
36254;BME280;22291;52.250;21.228;2023-02-03T13:07:01;99655.34;;;0.52;71.81
36254;BME280;22291;52.250;21.228;2023-02-03T13:09:43;99648.16;;;0.52;71.58
36254;BME280;22291;52.250;21.228;2023-02-03T13:18:12;99609.83;;;0.48;72.29
36254;BME280;22291;52.250;21.228;2023-02-03T13:20:54;99601.05;;;0.48;71.82
36254;BME280;22291;52.250;21.228;2023-02-03T13:23:23;99601.02;;;0.45;72.14
36254;BME280;22291;52.250;21.228;2023-02-03T13:26:13;99592.22;;;0.42;71.79
36254;BME280;22291;52.250;21.228;2023-02-03T13:31:40;99558.41;;;0.35;71.73
36254;BME280;22291;52.250;21.228;2023-02-03T13:34:37;99554.66;;;0.33;71.71
36254;BME280;22291;52.250;21.228;2023-02-03T13:42:53;99538.94;;;0.27;72.17
36254;BME280;22291;52.250;21.228;2023-02-03T13:45:30;99528.55;;;0.23;71.69
36254;BME280;22291;52.250;21.228;2023-02-03T13:48:13;99527.48;;;0.21;72.30
36254;BME280;22291;52.250;21.228;2023-02-03T13:50:43;99507.51;;;0.18;71.33
36254;BME280;22291;52.250;21.228;2023-02-03T13:53:22;99501.12;;;0.14;72.29
36254;BME280;22291;52.250;21.228;2023-02-03T13:55:58;99501.63;;;0.09;72.89
36254;BME280;22291;52.250;21.228;2023-02-03T13:58:32;99484.83;;;0.03;73.40
36254;BME280;22291;52.250;21.228;2023-02-03T14:01:00;99487.47;;;-0.05;74.05
36254;BME280;22291;52.250;21.228;2023-02-03T14:03:46;99474.91;;;-0.14;74.79
36254;BME280;22291;52.250;21.228;2023-02-03T14:09:33;99463.41;;;-0.30;75.79
36254;BME280;22291;52.250;21.228;2023-02-03T14:12:34;99464.45;;;-0.31;76.61
36254;BME280;22291;52.250;21.228;2023-02-03T14:18:17;99451.16;;;-0.31;78.06
36254;BME280;22291;52.250;21.228;2023-02-03T14:28:28;99436.11;;;-0.61;80.06
36254;BME280;22291;52.250;21.228;2023-02-03T14:31:09;99432.60;;;-0.69;80.61
36254;BME280;22291;52.250;21.228;2023-02-03T14:33:55;99426.72;;;-0.73;80.98
36254;BME280;22291;52.250;21.228;2023-02-03T14:41:57;99415.16;;;-0.95;84.02
36254;BME280;22291;52.250;21.228;2023-02-03T14:47:58;99404.18;;;-1.06;84.55
36254;BME280;22291;52.250;21.228;2023-02-03T14:50:53;99400.41;;;-1.15;85.56
36254;BME280;22291;52.250;21.228;2023-02-03T14:53:38;99396.09;;;-1.24;87.41
36254;BME280;22291;52.250;21.228;2023-02-03T14:59:46;99387.51;;;-1.34;87.26
36254;BME280;22291;52.250;21.228;2023-02-03T15:02:19;99391.44;;;-1.39;87.58
36254;BME280;22291;52.250;21.228;2023-02-03T15:04:49;99390.37;;;-1.40;88.37
36254;BME280;22291;52.250;21.228;2023-02-03T15:07:41;99380.54;;;-1.42;88.68